Lyric Sun — C6ZG4 — position and weather

sailwx.info

Track history (hours):
 
Tides and Currents Weather Stations Pressure Air Temp Water Temp Dewpoint Dewpoint Depression Visibility Wind Speed Wind Dir Waves Ship Positions

Lyric Sun

Last reported at 2017-Oct-30 17:08 UTC. Time now 2017-Nov-25 06:05 UTC.
Position N 38°37' E 121°55'.
Warning: this ship's position is 25 days out of date.

Length 229 m; draft 14.7 m.

Type: Cargo ship. MMSI: 311054600.

Date/timePositionNaut miles runAvg speedWind from/ knotsBaromVisibWave heightAir tempDewpointWater temp
2017-Oct-30 17:08N 38°37' E 121°55'410.4
2017-Oct-30 16:46N 38°41' E 121°56'  
2017-Oct-28 12:34N 38°54' E 122°02'2 4.7
2017-Oct-28 12:06N 38°52' E 122°01'3 8.5
2017-Oct-28 11:44N 38°49' E 121°59'4 9.3
2017-Oct-28 11:17N 38°45' E 121°58'3 9.9
2017-Oct-28 11:00N 38°42' E 121°57'4 2.4
2017-Oct-28 09:16N 38°38' E 121°57'0 0.1
2017-Oct-28 08:58N 38°38' E 121°57'6 2.5
2017-Oct-28 06:37N 38°42' E 122°03'110.6
2017-Oct-28 06:30N 38°41' E 122°03'510.7
2017-Oct-28 06:00N 38°36' E 122°07'810.6
2017-Oct-28 05:15N 38°29' E 122°12'710.6
2017-Oct-28 04:33N 38°24' E 122°18'310.8
2017-Oct-28 04:17N 38°21' E 122°20'310.5
2017-Oct-28 04:00N 38°19' E 122°22'5 9.2
2017-Oct-28 03:27N 38°14' E 122°25'511.2
2017-Oct-28 02:59N 38°10' E 122°29'610.6
2017-Oct-28 02:28N 38°07' E 122°35'810.9
2017-Oct-28 01:42N 38°03' E 122°45'210.6
2017-Oct-28 01:30N 38°02' E 122°47'510.6
2017-Oct-28 01:00N 37°59' E 122°52'611.1
2017-Oct-28 00:30N 37°55' E 122°57'611.0
2017-Oct-27 23:59N 37°51' E 123°03'610.9
2017-Oct-27 23:24N 37°47' E 123°08'510.5
2017-Oct-27 22:55N 37°43' E 123°12'410.1
2017-Oct-27 22:29N 37°39' E 123°15'510.2
2017-Oct-27 22:00N 37°35' E 123°19'14 9.9
2017-Oct-27 20:35N 37°22' E 123°25'3 9.8
2017-Oct-27 20:18N 37°19' E 123°25'37810.8
2017-Oct-26 09:17N 31°03' E 124°05'  
Track history (hours):
 
Tides and Currents Weather Stations Pressure Air Temp Water Temp Dewpoint Dewpoint Depression Visibility Wind Speed Wind Dir Waves Ship Positions

Lyric Sun

Last reported at 2017-Oct-30 17:08 UTC. Time now 2017-Nov-25 06:05 UTC.
Position N 38°37' E 121°55'.
Warning: this ship's position is 25 days out of date.

Length 229 m; draft 14.7 m.

Type: Cargo ship. MMSI: 311054600.

Date/timePositionNaut miles runAvg speedWind from/ knotsBaromVisibWave heightAir tempDewpointWater temp
2017-Oct-30 17:08N 38°37' E 121°55'410.4
2017-Oct-30 16:46N 38°41' E 121°56'  
2017-Oct-28 12:34N 38°54' E 122°02'2 4.7
2017-Oct-28 12:06N 38°52' E 122°01'3 8.5
2017-Oct-28 11:44N 38°49' E 121°59'4 9.3
2017-Oct-28 11:17N 38°45' E 121°58'3 9.9
2017-Oct-28 11:00N 38°42' E 121°57'4 2.4
2017-Oct-28 09:16N 38°38' E 121°57'0 0.1
2017-Oct-28 08:58N 38°38' E 121°57'6 2.5
2017-Oct-28 06:37N 38°42' E 122°03'110.6
2017-Oct-28 06:30N 38°41' E 122°03'510.7
2017-Oct-28 06:00N 38°36' E 122°07'810.6
2017-Oct-28 05:15N 38°29' E 122°12'710.6
2017-Oct-28 04:33N 38°24' E 122°18'310.8
2017-Oct-28 04:17N 38°21' E 122°20'310.5
2017-Oct-28 04:00N 38°19' E 122°22'5 9.2
2017-Oct-28 03:27N 38°14' E 122°25'511.2
2017-Oct-28 02:59N 38°10' E 122°29'610.6
2017-Oct-28 02:28N 38°07' E 122°35'810.9
2017-Oct-28 01:42N 38°03' E 122°45'210.6
2017-Oct-28 01:30N 38°02' E 122°47'510.6
2017-Oct-28 01:00N 37°59' E 122°52'611.1
2017-Oct-28 00:30N 37°55' E 122°57'611.0
2017-Oct-27 23:59N 37°51' E 123°03'610.9
2017-Oct-27 23:24N 37°47' E 123°08'510.5
2017-Oct-27 22:55N 37°43' E 123°12'410.1
2017-Oct-27 22:29N 37°39' E 123°15'510.2
2017-Oct-27 22:00N 37°35' E 123°19'14 9.9
2017-Oct-27 20:35N 37°22' E 123°25'3 9.8
2017-Oct-27 20:18N 37°19' E 123°25'37810.8
2017-Oct-26 09:17N 31°03' E 124°05'  

Dump ship's entire track history